createdAt,value
2019-01-10T00:12:15.357Z,2.23
2019-01-10T00:14:44.840Z,3.00
2019-01-10T00:17:14.376Z,3.23
2019-01-10T00:19:44.022Z,2.70
2019-01-10T00:22:13.572Z,3.93
2019-01-10T00:24:43.078Z,3.80
2019-01-10T00:27:12.517Z,4.60
2019-01-10T00:29:42.068Z,3.83
2019-01-10T00:32:11.519Z,2.77
2019-01-10T00:34:40.966Z,2.57
2019-01-10T00:37:10.384Z,2.73
2019-01-10T00:39:39.844Z,2.57
2019-01-10T00:42:09.354Z,2.57
2019-01-10T00:44:38.818Z,2.10
2019-01-10T00:47:08.300Z,2.83
2019-01-10T00:49:37.882Z,3.07
2019-01-10T00:52:07.422Z,3.03
2019-01-10T00:54:36.820Z,2.97
2019-01-10T00:57:06.442Z,2.87
2019-01-10T00:59:38.053Z,3.87
2019-01-10T01:02:07.514Z,3.37
2019-01-10T01:04:37.067Z,2.53
2019-01-10T01:07:06.648Z,2.77
2019-01-10T01:09:36.040Z,3.07
2019-01-10T01:12:05.599Z,2.90
2019-01-10T01:14:35.212Z,2.90
2019-01-10T01:17:04.785Z,2.27
2019-01-10T01:19:34.273Z,2.83
2019-01-10T01:22:03.690Z,3.40
2019-01-10T01:24:33.092Z,2.83
2019-01-10T01:27:02.547Z,3.37
2019-01-10T01:29:32.107Z,3.07
2019-01-10T01:32:01.500Z,2.87
2019-01-10T01:38:24.416Z,4.07
2019-01-10T01:40:53.917Z,2.20
2019-01-10T01:43:23.379Z,3.57
2019-01-10T01:45:52.881Z,2.70
2019-01-10T01:48:22.379Z,3.40
2019-01-10T01:50:51.869Z,2.97
2019-01-10T01:53:21.414Z,3.73
2019-01-10T01:55:51.031Z,2.47
2019-01-10T01:58:20.577Z,2.73
2019-01-10T02:00:50.035Z,4.07
2019-01-10T02:03:19.475Z,2.93
2019-01-10T02:05:49.031Z,3.07
2019-01-10T02:08:18.489Z,2.43
2019-01-10T02:10:47.999Z,2.60
2019-01-10T02:13:17.646Z,3.17
2019-01-10T02:15:47.334Z,3.53
2019-01-10T02:18:16.809Z,2.27
2019-01-10T02:20:46.283Z,2.80
2019-01-10T02:23:15.707Z,3.07
2019-01-10T02:25:45.125Z,2.50
2019-01-10T02:28:14.629Z,2.67
2019-01-10T02:30:44.210Z,2.53
2019-01-10T02:33:13.682Z,2.33
2019-01-10T02:35:43.061Z,2.27
2019-01-10T02:38:12.465Z,2.97
2019-01-10T02:40:41.953Z,2.73
2019-01-10T02:43:11.437Z,2.43
2019-01-10T02:45:40.961Z,2.47
2019-01-10T02:48:10.402Z,2.50
2019-01-10T02:50:39.852Z,2.67
2019-01-10T02:53:09.368Z,3.53
2019-01-10T02:59:11.270Z,2.93
2019-01-10T03:01:40.815Z,2.23
2019-01-10T03:04:10.186Z,3.00
2019-01-10T03:06:39.744Z,2.60
2019-01-10T03:09:14.191Z,2.13
2019-01-10T03:11:43.563Z,2.83
2019-01-10T03:14:13.024Z,2.83
2019-01-10T03:16:42.485Z,2.40
2019-01-10T03:22:53.372Z,1.90
2019-01-10T03:25:22.890Z,3.00
2019-01-10T03:27:52.319Z,2.17
2019-01-10T03:30:22.059Z,2.50
2019-01-10T03:32:51.498Z,3.40
2019-01-10T03:35:21.015Z,2.63
2019-01-10T03:37:50.533Z,3.17
2019-01-10T03:40:21.886Z,3.23
2019-01-10T03:42:51.393Z,2.90
2019-01-10T03:45:22.637Z,4.10
2019-01-10T03:47:54.084Z,3.07
2019-01-10T03:50:23.572Z,3.63
2019-01-10T03:52:53.055Z,2.33
2019-01-10T03:55:22.506Z,2.37
2019-01-10T03:57:51.963Z,2.53
2019-01-10T04:00:25.372Z,2.13
2019-01-10T04:02:54.928Z,2.13
2019-01-10T04:05:24.409Z,2.53
2019-01-10T04:07:53.964Z,2.17
2019-01-10T04:10:23.400Z,2.33
2019-01-10T04:12:52.937Z,2.60
2019-01-10T04:15:22.440Z,3.10
2019-01-10T04:17:51.907Z,2.23
2019-01-10T04:20:21.460Z,2.40
2019-01-10T04:22:50.886Z,2.30
2019-01-10T04:25:20.504Z,1.97
2019-01-10T04:27:50.374Z,2.03
2019-01-10T04:30:21.007Z,3.10
2019-01-10T04:32:50.453Z,1.90
2019-01-10T04:35:19.972Z,2.57
2019-01-10T04:37:49.520Z,1.80
2019-01-10T04:40:20.780Z,2.67
2019-01-10T04:42:50.305Z,2.63
2019-01-10T04:45:19.716Z,2.97
2019-01-10T04:47:49.168Z,2.23
2019-01-10T04:50:18.663Z,3.03
2019-01-10T04:52:48.125Z,2.40
2019-01-10T04:55:18.283Z,2.27
2019-01-10T04:57:47.818Z,3.00
2019-01-10T05:00:26.307Z,3.67
2019-01-10T05:02:55.858Z,2.40
2019-01-10T05:05:25.239Z,2.63
2019-01-10T05:07:54.777Z,2.07
2019-01-10T05:10:24.212Z,2.00
2019-01-10T05:12:53.656Z,1.93
2019-01-10T05:15:23.215Z,2.53
2019-01-10T05:17:53.043Z,2.00
2019-01-10T05:20:22.655Z,2.57
2019-01-10T05:22:52.199Z,3.90
2019-01-10T05:25:21.780Z,1.97
2019-01-10T05:27:51.563Z,2.07
2019-01-10T05:30:24.943Z,2.67
2019-01-10T05:32:57.388Z,2.40
2019-01-10T05:35:26.753Z,2.00
2019-01-10T05:37:56.599Z,3.40
2019-01-10T05:40:26.241Z,2.80
2019-01-10T05:42:56.042Z,3.00
2019-01-10T05:45:25.740Z,1.80
2019-01-10T05:47:55.447Z,2.03
2019-01-10T05:50:25.116Z,2.10
2019-01-10T05:52:54.662Z,2.30
2019-01-10T05:55:24.781Z,2.23
2019-01-10T05:57:54.261Z,3.10
2019-01-10T06:00:28.568Z,3.80
2019-01-10T06:02:59.268Z,3.30
2019-01-10T06:05:28.798Z,3.00
2019-01-10T06:07:58.601Z,2.47
2019-01-10T06:10:29.419Z,3.13
2019-01-10T06:23:36.482Z,3.37
2019-01-10T06:26:06.156Z,3.00
2019-01-10T06:28:49.017Z,2.93
2019-01-10T06:31:18.376Z,2.33
2019-01-10T06:33:47.750Z,3.00
2019-01-10T06:36:17.181Z,2.63
2019-01-10T06:38:46.587Z,2.40
2019-01-10T06:41:17.017Z,3.67
2019-01-10T06:43:46.574Z,2.87
2019-01-10T06:46:15.936Z,3.03
2019-01-10T06:48:46.587Z,4.23
2019-01-10T06:51:16.109Z,3.17
2019-01-10T06:53:45.574Z,2.50
2019-01-10T06:56:15.304Z,3.20
2019-01-10T06:58:45.204Z,2.60
2019-01-10T07:01:14.594Z,3.20
2019-01-10T07:03:43.976Z,2.90
2019-01-10T07:06:13.709Z,3.13
2019-01-10T07:08:43.156Z,3.00
2019-01-10T07:11:12.664Z,2.93
2019-01-10T07:13:42.024Z,2.53
2019-01-10T07:16:11.468Z,3.50
2019-01-10T07:18:40.902Z,2.73
2019-01-10T07:21:10.266Z,2.77
2019-01-10T07:23:46.120Z,3.20
2019-01-10T07:26:15.711Z,2.70
2019-01-10T07:28:45.149Z,3.43
2019-01-10T07:31:30.877Z,3.37
2019-01-10T07:38:09.619Z,3.07
2019-01-10T07:40:39.945Z,2.67
2019-01-10T07:43:09.372Z,3.17
2019-01-10T07:45:38.765Z,1.90
2019-01-10T07:48:09.747Z,2.37
2019-01-10T07:50:39.527Z,2.37
2019-01-10T07:53:10.261Z,3.37
2019-01-10T07:55:40.519Z,2.70
2019-01-10T07:58:10.306Z,2.97
2019-01-10T08:00:39.930Z,3.43
2019-01-10T08:03:09.472Z,3.17
2019-01-10T08:05:38.904Z,3.27
2019-01-10T08:08:09.341Z,2.37
2019-01-10T08:10:38.860Z,2.83
2019-01-10T08:13:08.357Z,3.10
2019-01-10T08:15:37.733Z,2.80
2019-01-10T08:18:07.555Z,2.03
2019-01-10T08:20:37.246Z,2.13
2019-01-10T08:23:07.066Z,2.73
2019-01-10T08:25:36.583Z,2.93
2019-01-10T08:28:05.980Z,2.37
2019-01-10T08:30:35.781Z,3.13
2019-01-10T08:33:05.570Z,2.23
2019-01-10T08:35:35.007Z,2.40
2019-01-10T08:38:04.421Z,4.17
2019-01-10T08:40:33.916Z,4.63
2019-01-10T08:43:03.841Z,2.37
2019-01-10T08:45:33.603Z,2.63
2019-01-10T08:48:03.375Z,2.47
2019-01-10T08:50:33.180Z,2.40
2019-01-10T08:53:02.946Z,3.00
2019-01-10T08:55:32.624Z,2.97
2019-01-10T08:58:02.041Z,2.93
2019-01-10T09:00:31.680Z,2.87
2019-01-10T09:03:09.529Z,2.83
2019-01-10T09:05:43.450Z,2.20
2019-01-10T09:08:13.438Z,2.80
2019-01-10T09:10:46.692Z,2.03
2019-01-10T09:13:16.476Z,2.40
2019-01-10T09:15:47.757Z,2.80
2019-01-10T09:18:22.348Z,3.63
2019-01-10T09:24:34.577Z,3.83
2019-01-10T09:27:04.770Z,2.57
2019-01-10T09:29:34.816Z,2.53
2019-01-10T09:32:04.390Z,2.50
2019-01-10T09:34:34.198Z,2.63
2019-01-10T09:37:03.973Z,2.70
2019-01-10T09:39:33.658Z,2.83
2019-01-10T09:42:03.034Z,3.00
2019-01-10T09:44:32.606Z,2.67
2019-01-10T09:47:02.029Z,3.97
2019-01-10T09:49:31.542Z,2.73
2019-01-10T09:52:01.283Z,3.30
2019-01-10T09:54:31.234Z,3.97
2019-01-10T09:57:00.689Z,3.33
2019-01-10T09:59:30.250Z,2.27
2019-01-10T10:01:59.641Z,2.80
2019-01-10T10:04:29.032Z,3.43
2019-01-10T10:06:58.886Z,2.77
2019-01-10T10:09:28.762Z,3.00
2019-01-10T10:11:58.567Z,2.40
2019-01-10T10:14:28.368Z,3.77
2019-01-10T10:16:58.231Z,2.30
2019-01-10T10:19:28.046Z,3.07
2019-01-10T10:21:57.851Z,3.03
2019-01-10T10:24:30.686Z,3.40
2019-01-10T10:27:00.473Z,3.33
2019-01-10T10:29:33.355Z,2.80
2019-01-10T10:32:05.985Z,3.37
2019-01-10T10:34:35.558Z,4.37
2019-01-10T10:37:05.200Z,2.90
2019-01-10T10:39:34.692Z,3.43
2019-01-10T10:42:04.268Z,3.90
2019-01-10T10:44:33.756Z,3.13
2019-01-10T10:47:03.409Z,2.90
2019-01-10T10:49:33.229Z,3.30
2019-01-10T10:52:02.790Z,3.77
2019-01-10T10:54:32.238Z,2.73
2019-01-10T10:57:02.101Z,2.67
2019-01-10T10:59:33.673Z,2.20
2019-01-10T11:02:04.252Z,2.33
2019-01-10T11:04:34.041Z,3.53
2019-01-10T11:07:03.505Z,3.33
2019-01-10T11:09:33.232Z,3.00
2019-01-10T11:12:02.671Z,3.33
2019-01-10T11:14:32.389Z,2.80
2019-01-10T11:17:21.757Z,5.37
2019-01-10T11:19:51.268Z,3.30
2019-01-10T11:22:20.826Z,3.20
2019-01-10T11:24:50.553Z,3.83
2019-01-10T11:27:20.214Z,3.90
2019-01-10T11:29:49.614Z,3.40
2019-01-10T11:32:19.469Z,2.73
2019-01-10T11:59:54.362Z,3.17
2019-01-10T12:02:24.068Z,2.97
2019-01-10T12:04:53.500Z,3.87
2019-01-10T12:07:22.967Z,3.57
2019-01-10T12:09:52.538Z,2.90
2019-01-10T12:12:28.120Z,3.30
2019-01-10T12:14:57.934Z,2.40
2019-01-10T12:17:27.753Z,2.53
2019-01-10T12:19:57.546Z,2.60
2019-01-10T12:22:36.492Z,4.00
2019-01-10T12:25:18.278Z,4.70
2019-01-10T12:27:50.885Z,3.90
2019-01-10T12:30:23.661Z,2.97
2019-01-10T12:32:53.477Z,2.30
2019-01-10T12:35:23.906Z,2.70
2019-01-10T12:37:53.730Z,2.17
2019-01-10T12:40:23.574Z,3.07
2019-01-10T12:42:53.147Z,2.57
2019-01-10T12:45:22.658Z,2.63
2019-01-10T12:47:52.207Z,1.87
2019-01-10T12:50:24.170Z,3.00
2019-01-10T12:52:53.528Z,2.77
2019-01-10T12:55:23.261Z,2.30
2019-01-10T12:57:52.620Z,2.57
2019-01-10T13:00:22.911Z,2.67
2019-01-10T13:02:53.334Z,1.23
2019-01-10T13:05:22.906Z,2.13
2019-01-10T13:07:52.386Z,1.90
2019-01-10T13:10:21.841Z,2.77
2019-01-10T13:12:51.640Z,2.27
2019-01-10T13:15:30.131Z,2.90
2019-01-10T13:17:59.498Z,1.80
2019-01-10T13:27:33.762Z,2.90
2019-01-10T13:30:03.885Z,3.30
2019-01-10T13:32:33.481Z,2.10
2019-01-10T13:35:02.850Z,2.30
2019-01-10T13:37:32.227Z,2.80
2019-01-10T13:40:01.977Z,4.03
2019-01-10T13:42:31.513Z,2.77
2019-01-10T13:45:00.894Z,3.93
2019-01-10T13:47:30.317Z,3.40
2019-01-10T13:49:59.729Z,3.73
2019-01-10T13:56:10.349Z,1.87
2019-01-10T13:58:39.877Z,2.63
2019-01-10T14:03:38.581Z,3.30
2019-01-10T14:06:09.222Z,3.73
2019-01-10T14:08:38.659Z,2.67
2019-01-10T14:11:08.061Z,3.43
2019-01-10T14:13:37.423Z,2.80
2019-01-10T14:16:06.966Z,2.60
2019-01-10T14:18:36.389Z,2.57
2019-01-10T14:21:05.892Z,2.40
2019-01-10T14:23:35.733Z,4.27
2019-01-10T14:26:05.335Z,2.73
2019-01-10T14:28:34.777Z,3.77
2019-01-10T14:31:05.590Z,4.87
2019-01-10T14:33:35.039Z,3.33
2019-01-10T14:36:04.920Z,2.67
2019-01-10T14:38:34.358Z,2.23
2019-01-10T14:41:03.844Z,1.90
2019-01-10T14:43:33.276Z,2.57
2019-01-10T14:46:02.758Z,2.60
2019-01-10T14:48:32.395Z,2.30
2019-01-10T14:51:01.850Z,1.80
2019-01-10T14:53:32.936Z,2.13
2019-01-10T14:56:02.863Z,2.10
2019-01-10T14:58:32.347Z,2.00
2019-01-10T15:01:01.805Z,1.60
2019-01-10T15:03:31.270Z,2.17
2019-01-10T15:06:01.155Z,1.27
2019-01-10T15:08:30.526Z,2.70
2019-01-10T15:11:00.298Z,2.10
2019-01-10T15:13:29.734Z,2.30
2019-01-10T15:15:59.270Z,1.90
2019-01-10T15:18:29.118Z,2.57
2019-01-10T15:20:58.648Z,2.10
2019-01-10T15:23:28.116Z,2.27
2019-01-10T15:25:58.015Z,1.90
2019-01-10T15:28:27.480Z,2.90
2019-01-10T15:30:57.328Z,2.60
2019-01-10T15:33:26.768Z,1.93
2019-01-10T15:35:56.257Z,1.97
2019-01-10T15:38:25.761Z,2.43
2019-01-10T15:40:55.197Z,2.10
2019-01-10T15:43:24.608Z,2.13
2019-01-10T15:45:54.225Z,2.23
2019-01-10T15:48:23.776Z,2.27
2019-01-10T15:50:53.352Z,2.60
2019-01-10T15:53:23.015Z,1.50
2019-01-10T15:55:52.621Z,1.97
2019-01-10T15:58:22.393Z,1.83
2019-01-10T16:00:51.796Z,2.20
2019-01-10T16:03:21.333Z,2.13
2019-01-10T16:05:50.939Z,2.27
2019-01-10T16:08:20.573Z,2.07
2019-01-10T16:10:50.406Z,1.90
2019-01-10T16:13:20.193Z,3.00
2019-01-10T16:15:49.748Z,3.73
2019-01-10T16:18:19.201Z,3.83
2019-01-10T16:20:49.264Z,3.80
2019-01-10T16:23:19.038Z,3.07
2019-01-10T16:25:48.881Z,3.03
2019-01-10T16:28:18.555Z,3.03
2019-01-10T16:30:48.024Z,3.07
2019-01-10T16:33:17.473Z,2.83
2019-01-10T16:35:46.989Z,3.20
2019-01-10T16:38:16.671Z,2.70
2019-01-10T16:40:46.439Z,3.37
2019-01-10T16:43:15.854Z,2.43
2019-01-10T16:45:47.106Z,2.43
2019-01-10T16:48:16.629Z,3.20
2019-01-10T16:50:47.744Z,3.17
2019-01-10T16:53:17.183Z,3.60
2019-01-10T16:55:46.618Z,3.43
2019-01-10T16:58:16.108Z,4.60
2019-01-10T17:00:45.914Z,5.70
2019-01-10T17:03:15.380Z,3.70
2019-01-10T17:05:45.117Z,4.20
2019-01-10T17:08:14.543Z,4.03
2019-01-10T17:10:44.162Z,4.77
2019-01-10T17:13:13.751Z,5.83
2019-01-10T17:15:43.278Z,4.20
2019-01-10T17:18:12.803Z,4.40
2019-01-10T17:20:42.378Z,5.40
2019-01-10T17:23:11.834Z,4.63
2019-01-10T17:25:41.290Z,4.53
2019-01-10T17:28:10.891Z,4.47
2019-01-10T17:30:40.261Z,4.33
2019-01-10T17:33:09.886Z,5.30
2019-01-10T17:35:39.560Z,5.67
2019-01-10T17:38:09.186Z,5.40
2019-01-10T17:40:38.958Z,4.50
2019-01-10T17:43:08.742Z,4.77
2019-01-10T17:45:38.939Z,5.30
2019-01-10T17:48:10.143Z,4.47
2019-01-10T17:50:40.150Z,5.60
2019-01-10T17:53:10.086Z,4.77
2019-01-10T17:55:40.100Z,4.97
2019-01-10T17:58:09.970Z,4.73
2019-01-10T18:00:39.883Z,5.77
2019-01-10T18:03:09.509Z,6.30
2019-01-10T18:05:39.959Z,5.90
2019-01-10T18:08:09.624Z,4.90
2019-01-10T18:10:39.140Z,6.77
2019-01-10T18:13:08.902Z,6.70
2019-01-10T18:15:38.581Z,6.63
2019-01-10T18:18:08.102Z,5.87
2019-01-10T18:20:41.575Z,6.30
2019-01-10T18:23:12.107Z,5.17
2019-01-10T18:25:41.816Z,5.57
2019-01-10T18:28:11.732Z,5.40
2019-01-10T18:30:43.420Z,6.67
2019-01-10T18:33:12.664Z,6.13
2019-01-10T18:35:42.142Z,5.90
2019-01-10T18:38:12.021Z,6.43
2019-01-10T18:40:41.818Z,6.30
2019-01-10T18:43:11.604Z,6.67
2019-01-10T18:45:41.348Z,6.90
2019-01-10T18:48:11.088Z,6.90
2019-01-10T18:50:40.599Z,5.90
2019-01-10T18:53:10.248Z,6.73
2019-01-10T18:55:40.073Z,6.63
2019-01-10T18:58:09.681Z,7.50
2019-01-10T19:00:39.189Z,7.53
2019-01-10T19:03:08.675Z,7.13
2019-01-10T19:05:38.151Z,7.43
2019-01-10T19:08:07.916Z,7.17
2019-01-10T19:10:37.565Z,7.40
2019-01-10T19:13:07.083Z,7.67
2019-01-10T19:15:36.645Z,6.43
2019-01-10T19:18:06.029Z,7.00
2019-01-10T19:20:35.395Z,7.60
2019-01-10T19:26:37.479Z,9.47
2019-01-10T19:29:06.944Z,7.57
2019-01-10T19:31:36.322Z,7.33
2019-01-10T19:34:06.182Z,6.50
2019-01-10T19:36:36.011Z,7.70
2019-01-10T19:39:08.409Z,7.17
2019-01-10T19:41:37.956Z,12.93
2019-01-10T19:44:07.748Z,8.47
2019-01-10T19:46:37.224Z,9.37
2019-01-10T19:49:06.739Z,8.50
2019-01-10T19:51:36.181Z,8.27
2019-01-10T19:54:05.767Z,8.97
2019-01-10T19:56:35.515Z,9.43
2019-01-10T19:59:05.262Z,9.10
2019-01-10T20:01:37.728Z,8.83
2019-01-10T20:04:05.866Z,8.60
2019-01-10T20:06:35.541Z,10.77
2019-01-10T20:09:08.441Z,9.17
2019-01-10T20:11:38.266Z,9.57
2019-01-10T20:14:07.731Z,8.40
2019-01-10T20:16:37.392Z,10.33
2019-01-10T20:19:07.042Z,8.23
2019-01-10T20:21:36.745Z,9.50
2019-01-10T20:24:25.755Z,8.97
2019-01-10T20:26:56.395Z,8.90
2019-01-10T20:29:25.990Z,9.50
2019-01-10T20:31:55.801Z,9.47
2019-01-10T20:34:25.682Z,9.30
2019-01-10T20:36:55.247Z,18.83
2019-01-10T20:39:25.004Z,9.43
2019-01-10T20:42:01.688Z,10.03
2019-01-10T20:44:26.957Z,11.00
2019-01-10T20:46:56.542Z,10.10
2019-01-10T20:49:26.283Z,11.57
2019-01-10T20:51:55.833Z,10.37
2019-01-10T20:54:25.420Z,10.60
2019-01-10T20:56:54.798Z,11.27
2019-01-10T20:59:24.342Z,12.13
2019-01-10T21:01:54.024Z,10.27
2019-01-10T21:04:23.700Z,12.87
2019-01-10T21:06:53.373Z,10.20
2019-01-10T21:09:23.058Z,10.73
2019-01-10T21:11:52.842Z,13.77
2019-01-10T21:14:22.524Z,10.73
2019-01-10T21:16:52.230Z,13.27
2019-01-10T21:19:21.886Z,13.63
2019-01-10T21:21:51.474Z,12.97
2019-01-10T21:24:21.051Z,13.80
2019-01-10T21:26:50.675Z,14.60
2019-01-10T21:29:24.517Z,14.13
2019-01-10T21:32:01.195Z,14.50
2019-01-10T21:34:33.494Z,14.47
2019-01-10T21:37:03.274Z,13.67
2019-01-10T21:39:33.023Z,12.90
2019-01-10T21:42:02.873Z,16.03
2019-01-10T21:44:32.648Z,14.87
2019-01-10T21:47:02.351Z,15.10
2019-01-10T21:49:32.049Z,12.97
2019-01-10T21:52:01.721Z,13.97
2019-01-10T21:54:33.175Z,15.93
2019-01-10T21:57:03.056Z,13.97
2019-01-10T21:59:32.997Z,17.63
2019-01-10T22:02:02.726Z,15.40
2019-01-10T22:04:32.444Z,15.27
2019-01-10T22:07:02.266Z,14.70
2019-01-10T22:09:31.808Z,15.53
2019-01-10T22:12:01.408Z,16.00
2019-01-10T22:14:33.193Z,15.73
2019-01-10T22:17:03.723Z,15.70
2019-01-10T22:19:33.401Z,14.17
2019-01-10T22:22:03.096Z,13.67
2019-01-10T22:24:32.705Z,12.70
2019-01-10T22:27:02.374Z,15.00
2019-01-10T22:29:31.842Z,12.90
2019-01-10T22:32:01.460Z,14.97
2019-01-10T22:34:30.855Z,15.70
2019-01-10T22:37:00.255Z,15.00
2019-01-10T22:39:29.732Z,15.87
2019-01-10T22:41:59.194Z,14.87
2019-01-10T22:44:28.570Z,13.67
2019-01-10T22:46:57.986Z,15.10
2019-01-10T22:49:27.517Z,15.70
2019-01-10T22:51:56.949Z,14.17
2019-01-10T22:54:26.348Z,13.53
2019-01-10T22:56:55.846Z,12.50
2019-01-10T22:59:25.423Z,16.87
2019-01-10T23:01:57.457Z,11.30
2019-01-10T23:04:32.784Z,14.70
2019-01-10T23:07:02.253Z,14.10
2019-01-10T23:09:31.629Z,13.57
2019-01-10T23:12:01.128Z,12.87
2019-01-10T23:14:30.540Z,15.50
2019-01-10T23:17:00.200Z,13.63
2019-01-10T23:19:29.620Z,14.67
2019-01-10T23:22:09.092Z,13.47
2019-01-10T23:24:38.576Z,14.07
2019-01-10T23:27:08.070Z,13.10
2019-01-10T23:29:37.535Z,13.97
2019-01-10T23:32:14.918Z,12.83
2019-01-10T23:34:56.824Z,11.90
2019-01-10T23:37:27.469Z,13.20
2019-01-10T23:39:57.547Z,10.23
2019-01-10T23:42:26.942Z,12.53
2019-01-10T23:44:56.420Z,13.67
2019-01-10T23:47:25.886Z,13.07
2019-01-10T23:49:55.326Z,12.13
2019-01-10T23:52:24.735Z,12.37
2019-01-10T23:54:54.196Z,13.20
2019-01-10T23:57:23.675Z,12.90
2019-01-10T23:59:53.140Z,12.70
